sensor_id;sensor_type;location;lat;lon;timestamp;temperature;humidity
65371;DHT22;58485;59.934;30.352;2022-09-03T00:00:04;24.25;43.88
65371;DHT22;58485;59.934;30.352;2022-09-03T00:01:02;24.25;43.84
65371;DHT22;58485;59.934;30.352;2022-09-03T00:02:08;24.25;43.77
65371;DHT22;58485;59.934;30.352;2022-09-03T00:03:07;24.24;43.89
65371;DHT22;58485;59.934;30.352;2022-09-03T00:04:04;24.23;43.89
65371;DHT22;58485;59.934;30.352;2022-09-03T00:05:05;24.23;43.83
65371;DHT22;58485;59.934;30.352;2022-09-03T00:06:09;24.21;43.83
65371;DHT22;58485;59.934;30.352;2022-09-03T00:07:06;24.21;43.94
65371;DHT22;58485;59.934;30.352;2022-09-03T00:08:06;24.21;43.89
65371;DHT22;58485;59.934;30.352;2022-09-03T00:09:02;24.21;43.97
65371;DHT22;58485;59.934;30.352;2022-09-03T00:10:01;24.23;43.96
65371;DHT22;58485;59.934;30.352;2022-09-03T00:10:56;24.21;43.93
65371;DHT22;58485;59.934;30.352;2022-09-03T00:11:54;24.21;43.96
65371;DHT22;58485;59.934;30.352;2022-09-03T00:12:53;24.23;43.87
65371;DHT22;58485;59.934;30.352;2022-09-03T00:13:56;24.23;43.87
65371;DHT22;58485;59.934;30.352;2022-09-03T00:14:51;24.21;43.97
65371;DHT22;58485;59.934;30.352;2022-09-03T00:15:46;24.20;43.99
65371;DHT22;58485;59.934;30.352;2022-09-03T00:16:43;24.19;43.85
65371;DHT22;58485;59.934;30.352;2022-09-03T00:17:39;24.21;43.92
65371;DHT22;58485;59.934;30.352;2022-09-03T00:18:33;24.20;43.94
65371;DHT22;58485;59.934;30.352;2022-09-03T00:19:30;24.20;43.87
65371;DHT22;58485;59.934;30.352;2022-09-03T00:20:27;24.21;43.80
65371;DHT22;58485;59.934;30.352;2022-09-03T00:21:33;24.20;43.79
65371;DHT22;58485;59.934;30.352;2022-09-03T00:22:29;24.21;43.84
65371;DHT22;58485;59.934;30.352;2022-09-03T00:23:25;24.20;43.87
65371;DHT22;58485;59.934;30.352;2022-09-03T00:24:20;24.20;43.79
65371;DHT22;58485;59.934;30.352;2022-09-03T00:25:17;24.21;43.80
65371;DHT22;58485;59.934;30.352;2022-09-03T00:26:18;24.21;43.60
65371;DHT22;58485;59.934;30.352;2022-09-03T00:27:19;24.21;43.71
65371;DHT22;58485;59.934;30.352;2022-09-03T00:28:17;24.19;43.84
65371;DHT22;58485;59.934;30.352;2022-09-03T00:29:15;24.20;43.87
65371;DHT22;58485;59.934;30.352;2022-09-03T00:30:10;24.18;43.86
65371;DHT22;58485;59.934;30.352;2022-09-03T00:31:08;24.19;43.84
65371;DHT22;58485;59.934;30.352;2022-09-03T00:32:08;24.20;43.75
65371;DHT22;58485;59.934;30.352;2022-09-03T00:33:07;24.18;43.87
65371;DHT22;58485;59.934;30.352;2022-09-03T00:34:04;24.19;43.84
65371;DHT22;58485;59.934;30.352;2022-09-03T00:35:02;24.19;43.79
65371;DHT22;58485;59.934;30.352;2022-09-03T00:36:04;24.19;43.75
65371;DHT22;58485;59.934;30.352;2022-09-03T00:37:00;24.18;43.90
65371;DHT22;58485;59.934;30.352;2022-09-03T00:37:51;24.17;43.86
65371;DHT22;58485;59.934;30.352;2022-09-03T00:38:44;24.18;43.89
65371;DHT22;58485;59.934;30.352;2022-09-03T00:39:36;24.18;43.88
65371;DHT22;58485;59.934;30.352;2022-09-03T00:40:41;24.18;43.64
65371;DHT22;58485;59.934;30.352;2022-09-03T00:41:44;24.18;43.80
65371;DHT22;58485;59.934;30.352;2022-09-03T00:42:47;24.18;43.72
65371;DHT22;58485;59.934;30.352;2022-09-03T00:43:55;24.17;43.67
65371;DHT22;58485;59.934;30.352;2022-09-03T00:45:09;24.16;43.72
65371;DHT22;58485;59.934;30.352;2022-09-03T00:46:13;24.15;43.80
65371;DHT22;58485;59.934;30.352;2022-09-03T00:47:13;24.16;43.89
65371;DHT22;58485;59.934;30.352;2022-09-03T00:48:16;24.15;43.84
65371;DHT22;58485;59.934;30.352;2022-09-03T00:49:32;24.15;43.77
65371;DHT22;58485;59.934;30.352;2022-09-03T00:50:35;24.14;43.78
65371;DHT22;58485;59.934;30.352;2022-09-03T00:51:36;24.14;43.82
65371;DHT22;58485;59.934;30.352;2022-09-03T00:52:46;24.12;43.87
65371;DHT22;58485;59.934;30.352;2022-09-03T00:53:53;24.12;43.90
65371;DHT22;58485;59.934;30.352;2022-09-03T00:54:55;24.12;43.77
65371;DHT22;58485;59.934;30.352;2022-09-03T00:55:55;24.11;43.93
65371;DHT22;58485;59.934;30.352;2022-09-03T00:56:54;24.11;43.92
65371;DHT22;58485;59.934;30.352;2022-09-03T00:58:23;24.09;43.84
65371;DHT22;58485;59.934;30.352;2022-09-03T00:59:33;24.09;43.93
65371;DHT22;58485;59.934;30.352;2022-09-03T01:00:30;24.09;44.01
65371;DHT22;58485;59.934;30.352;2022-09-03T01:01:27;24.11;43.90
65371;DHT22;58485;59.934;30.352;2022-09-03T01:02:35;24.10;44.03
65371;DHT22;58485;59.934;30.352;2022-09-03T01:03:41;24.09;44.02
65371;DHT22;58485;59.934;30.352;2022-09-03T01:04:50;24.09;43.95
65371;DHT22;58485;59.934;30.352;2022-09-03T01:05:56;24.09;43.93
65371;DHT22;58485;59.934;30.352;2022-09-03T01:07:01;24.06;43.98
65371;DHT22;58485;59.934;30.352;2022-09-03T01:08:05;24.06;43.93
65371;DHT22;58485;59.934;30.352;2022-09-03T01:09:20;24.06;43.93
65371;DHT22;58485;59.934;30.352;2022-09-03T01:10:26;24.04;44.01
65371;DHT22;58485;59.934;30.352;2022-09-03T01:11:27;24.05;44.06
65371;DHT22;58485;59.934;30.352;2022-09-03T01:12:31;24.03;44.09
65371;DHT22;58485;59.934;30.352;2022-09-03T01:13:35;24.05;44.09
65371;DHT22;58485;59.934;30.352;2022-09-03T01:14:42;24.05;43.98
65371;DHT22;58485;59.934;30.352;2022-09-03T01:15:40;24.03;44.00
65371;DHT22;58485;59.934;30.352;2022-09-03T01:16:42;24.02;43.91
65371;DHT22;58485;59.934;30.352;2022-09-03T01:17:45;24.00;44.09
65371;DHT22;58485;59.934;30.352;2022-09-03T01:18:51;24.00;44.13
65371;DHT22;58485;59.934;30.352;2022-09-03T01:21:40;23.99;44.23
65371;DHT22;58485;59.934;30.352;2022-09-03T01:23:09;23.98;44.16
65371;DHT22;58485;59.934;30.352;2022-09-03T01:24:29;23.98;44.31
65371;DHT22;58485;59.934;30.352;2022-09-03T01:25:40;23.97;44.22
65371;DHT22;58485;59.934;30.352;2022-09-03T01:26:54;23.96;44.29
65371;DHT22;58485;59.934;30.352;2022-09-03T01:28:16;23.96;44.27
65371;DHT22;58485;59.934;30.352;2022-09-03T01:29:17;23.95;44.27
65371;DHT22;58485;59.934;30.352;2022-09-03T01:30:17;23.95;44.34
65371;DHT22;58485;59.934;30.352;2022-09-03T01:31:17;23.95;44.27
65371;DHT22;58485;59.934;30.352;2022-09-03T01:32:21;23.95;44.27
65371;DHT22;58485;59.934;30.352;2022-09-03T01:33:21;23.96;44.29
65371;DHT22;58485;59.934;30.352;2022-09-03T01:34:26;23.96;44.22
65371;DHT22;58485;59.934;30.352;2022-09-03T01:35:29;23.96;44.25
65371;DHT22;58485;59.934;30.352;2022-09-03T01:36:30;23.95;44.24
65371;DHT22;58485;59.934;30.352;2022-09-03T01:37:35;23.96;44.22
65371;DHT22;58485;59.934;30.352;2022-09-03T01:38:37;23.96;44.32
65371;DHT22;58485;59.934;30.352;2022-09-03T01:39:39;23.96;44.32
65371;DHT22;58485;59.934;30.352;2022-09-03T01:40:43;23.95;44.45
65371;DHT22;58485;59.934;30.352;2022-09-03T01:41:47;23.94;44.45
65371;DHT22;58485;59.934;30.352;2022-09-03T01:43:11;23.95;44.31
65371;DHT22;58485;59.934;30.352;2022-09-03T01:44:19;23.95;44.41
65371;DHT22;58485;59.934;30.352;2022-09-03T01:45:38;23.94;44.21
65371;DHT22;58485;59.934;30.352;2022-09-03T01:46:39;23.94;44.45
65371;DHT22;58485;59.934;30.352;2022-09-03T01:47:42;23.94;44.39
65371;DHT22;58485;59.934;30.352;2022-09-03T01:48:44;23.94;44.50
65371;DHT22;58485;59.934;30.352;2022-09-03T01:49:44;23.92;44.36
65371;DHT22;58485;59.934;30.352;2022-09-03T01:50:44;23.94;44.41
65371;DHT22;58485;59.934;30.352;2022-09-03T01:51:38;23.94;44.46
65371;DHT22;58485;59.934;30.352;2022-09-03T01:52:41;23.95;44.26
65371;DHT22;58485;59.934;30.352;2022-09-03T01:55:30;23.92;44.22
65371;DHT22;58485;59.934;30.352;2022-09-03T01:56:30;23.92;44.42
65371;DHT22;58485;59.934;30.352;2022-09-03T01:57:48;23.91;44.45
65371;DHT22;58485;59.934;30.352;2022-09-03T01:58:49;23.91;44.43
65371;DHT22;58485;59.934;30.352;2022-09-03T01:59:56;23.91;44.38
65371;DHT22;58485;59.934;30.352;2022-09-03T02:00:52;23.91;44.51
65371;DHT22;58485;59.934;30.352;2022-09-03T02:01:52;23.91;44.51
65371;DHT22;58485;59.934;30.352;2022-09-03T02:02:48;23.92;44.54
65371;DHT22;58485;59.934;30.352;2022-09-03T02:03:43;23.92;44.52
65371;DHT22;58485;59.934;30.352;2022-09-03T02:04:35;23.94;44.54
65371;DHT22;58485;59.934;30.352;2022-09-03T02:05:27;23.94;44.51
65371;DHT22;58485;59.934;30.352;2022-09-03T02:06:19;23.94;44.48
65371;DHT22;58485;59.934;30.352;2022-09-03T02:07:11;23.94;44.51
65371;DHT22;58485;59.934;30.352;2022-09-03T02:08:04;23.94;44.48
65371;DHT22;58485;59.934;30.352;2022-09-03T02:08:57;23.94;44.45
65371;DHT22;58485;59.934;30.352;2022-09-03T02:09:49;23.94;44.42
65371;DHT22;58485;59.934;30.352;2022-09-03T02:10:44;23.94;44.35
65371;DHT22;58485;59.934;30.352;2022-09-03T02:11:37;23.95;44.45
65371;DHT22;58485;59.934;30.352;2022-09-03T02:12:30;23.96;44.42
65371;DHT22;58485;59.934;30.352;2022-09-03T02:13:26;23.95;44.38
65371;DHT22;58485;59.934;30.352;2022-09-03T02:14:23;23.95;44.38
65371;DHT22;58485;59.934;30.352;2022-09-03T02:15:17;23.95;44.35
65371;DHT22;58485;59.934;30.352;2022-09-03T02:16:13;23.95;44.35
65371;DHT22;58485;59.934;30.352;2022-09-03T02:17:06;23.95;44.43
65371;DHT22;58485;59.934;30.352;2022-09-03T02:18:02;23.96;44.26
65371;DHT22;58485;59.934;30.352;2022-09-03T02:18:58;23.96;44.39
65371;DHT22;58485;59.934;30.352;2022-09-03T02:19:52;23.95;44.48
65371;DHT22;58485;59.934;30.352;2022-09-03T02:20:44;23.97;44.48
65371;DHT22;58485;59.934;30.352;2022-09-03T02:21:39;23.96;44.45
65371;DHT22;58485;59.934;30.352;2022-09-03T02:22:34;23.97;44.50
65371;DHT22;58485;59.934;30.352;2022-09-03T02:23:27;23.95;44.48
65371;DHT22;58485;59.934;30.352;2022-09-03T02:24:18;23.96;44.51
65371;DHT22;58485;59.934;30.352;2022-09-03T02:25:11;23.96;44.48
65371;DHT22;58485;59.934;30.352;2022-09-03T02:26:02;23.95;44.47
65371;DHT22;58485;59.934;30.352;2022-09-03T02:26:55;23.95;44.46
65371;DHT22;58485;59.934;30.352;2022-09-03T02:27:47;23.96;44.47
65371;DHT22;58485;59.934;30.352;2022-09-03T02:28:40;23.95;44.46
65371;DHT22;58485;59.934;30.352;2022-09-03T02:29:33;23.95;44.40
65371;DHT22;58485;59.934;30.352;2022-09-03T02:30:25;23.96;44.45
65371;DHT22;58485;59.934;30.352;2022-09-03T02:31:16;23.96;44.48
65371;DHT22;58485;59.934;30.352;2022-09-03T02:32:08;23.95;44.47
65371;DHT22;58485;59.934;30.352;2022-09-03T02:33:00;23.95;44.45
65371;DHT22;58485;59.934;30.352;2022-09-03T02:33:52;23.95;44.45
65371;DHT22;58485;59.934;30.352;2022-09-03T02:34:44;23.96;44.44
65371;DHT22;58485;59.934;30.352;2022-09-03T02:35:36;23.96;44.45
65371;DHT22;58485;59.934;30.352;2022-09-03T02:36:32;23.96;44.35
65371;DHT22;58485;59.934;30.352;2022-09-03T02:37:26;23.95;44.45
65371;DHT22;58485;59.934;30.352;2022-09-03T02:38:18;23.95;44.40
65371;DHT22;58485;59.934;30.352;2022-09-03T02:39:12;23.95;44.44
65371;DHT22;58485;59.934;30.352;2022-09-03T02:40:05;23.95;44.45
65371;DHT22;58485;59.934;30.352;2022-09-03T02:40:59;23.94;44.45
65371;DHT22;58485;59.934;30.352;2022-09-03T02:41:53;23.95;44.45
65371;DHT22;58485;59.934;30.352;2022-09-03T02:42:47;23.95;44.48
65371;DHT22;58485;59.934;30.352;2022-09-03T02:43:41;23.95;44.45
65371;DHT22;58485;59.934;30.352;2022-09-03T02:44:40;23.95;44.39
65371;DHT22;58485;59.934;30.352;2022-09-03T02:45:36;23.92;44.48
65371;DHT22;58485;59.934;30.352;2022-09-03T02:46:33;23.95;44.51
65371;DHT22;58485;59.934;30.352;2022-09-03T02:47:30;23.94;44.51
65371;DHT22;58485;59.934;30.352;2022-09-03T02:48:23;23.92;44.53
65371;DHT22;58485;59.934;30.352;2022-09-03T02:49:15;23.94;44.51
65371;DHT22;58485;59.934;30.352;2022-09-03T02:50:08;23.92;44.53
65371;DHT22;58485;59.934;30.352;2022-09-03T02:51:00;23.94;44.52
65371;DHT22;58485;59.934;30.352;2022-09-03T02:51:56;23.92;44.35
65371;DHT22;58485;59.934;30.352;2022-09-03T02:52:48;23.92;44.52
65371;DHT22;58485;59.934;30.352;2022-09-03T02:53:41;23.92;44.51
65371;DHT22;58485;59.934;30.352;2022-09-03T02:54:32;23.91;44.53
65371;DHT22;58485;59.934;30.352;2022-09-03T02:55:29;23.92;44.54
65371;DHT22;58485;59.934;30.352;2022-09-03T02:56:20;23.94;44.58
65371;DHT22;58485;59.934;30.352;2022-09-03T02:57:17;23.92;44.57
65371;DHT22;58485;59.934;30.352;2022-09-03T02:58:08;23.92;44.58
65371;DHT22;58485;59.934;30.352;2022-09-03T02:59:01;23.92;44.56
65371;DHT22;58485;59.934;30.352;2022-09-03T02:59:54;23.92;44.53
65371;DHT22;58485;59.934;30.352;2022-09-03T03:00:46;23.92;44.58
65371;DHT22;58485;59.934;30.352;2022-09-03T03:01:38;23.94;44.58
65371;DHT22;58485;59.934;30.352;2022-09-03T03:02:31;23.91;44.57
65371;DHT22;58485;59.934;30.352;2022-09-03T03:03:22;23.92;44.58
65371;DHT22;58485;59.934;30.352;2022-09-03T03:04:15;23.92;44.59
65371;DHT22;58485;59.934;30.352;2022-09-03T03:05:06;23.91;44.56
65371;DHT22;58485;59.934;30.352;2022-09-03T03:06:02;23.92;44.48
65371;DHT22;58485;59.934;30.352;2022-09-03T03:06:54;23.92;44.58
65371;DHT22;58485;59.934;30.352;2022-09-03T03:07:47;23.92;44.53
65371;DHT22;58485;59.934;30.352;2022-09-03T03:08:38;23.91;44.51
65371;DHT22;58485;59.934;30.352;2022-09-03T03:09:30;23.92;44.53
65371;DHT22;58485;59.934;30.352;2022-09-03T03:10:21;23.90;44.53
65371;DHT22;58485;59.934;30.352;2022-09-03T03:11:14;23.90;44.51
65371;DHT22;58485;59.934;30.352;2022-09-03T03:12:07;23.91;44.51
65371;DHT22;58485;59.934;30.352;2022-09-03T03:13:00;23.92;44.46
65371;DHT22;58485;59.934;30.352;2022-09-03T03:13:51;23.91;44.48
65371;DHT22;58485;59.934;30.352;2022-09-03T03:14:43;23.90;44.48
65371;DHT22;58485;59.934;30.352;2022-09-03T03:15:36;23.91;44.52
65371;DHT22;58485;59.934;30.352;2022-09-03T03:16:28;23.91;44.55
65371;DHT22;58485;59.934;30.352;2022-09-03T03:17:20;23.89;44.56
65371;DHT22;58485;59.934;30.352;2022-09-03T03:18:12;23.90;44.57
65371;DHT22;58485;59.934;30.352;2022-09-03T03:19:03;23.89;44.58
65371;DHT22;58485;59.934;30.352;2022-09-03T03:19:55;23.90;44.58
65371;DHT22;58485;59.934;30.352;2022-09-03T03:20:47;23.89;44.59
65371;DHT22;58485;59.934;30.352;2022-09-03T03:21:39;23.90;44.59
65371;DHT22;58485;59.934;30.352;2022-09-03T03:22:30;23.90;44.61
65371;DHT22;58485;59.934;30.352;2022-09-03T03:23:22;23.90;44.61
65371;DHT22;58485;59.934;30.352;2022-09-03T03:24:14;23.89;44.61
65371;DHT22;58485;59.934;30.352;2022-09-03T03:25:06;23.90;44.59
65371;DHT22;58485;59.934;30.352;2022-09-03T03:26:00;23.90;44.54
65371;DHT22;58485;59.934;30.352;2022-09-03T03:26:54;23.88;44.59
65371;DHT22;58485;59.934;30.352;2022-09-03T03:27:47;23.88;44.57
65371;DHT22;58485;59.934;30.352;2022-09-03T03:28:39;23.90;44.56
65371;DHT22;58485;59.934;30.352;2022-09-03T03:29:31;23.87;44.57
65371;DHT22;58485;59.934;30.352;2022-09-03T03:30:23;23.88;44.54
65371;DHT22;58485;59.934;30.352;2022-09-03T03:31:19;23.87;44.40
65371;DHT22;58485;59.934;30.352;2022-09-03T03:32:11;23.88;44.55
65371;DHT22;58485;59.934;30.352;2022-09-03T03:33:03;23.88;44.52
65371;DHT22;58485;59.934;30.352;2022-09-03T03:33:56;23.88;44.56
65371;DHT22;58485;59.934;30.352;2022-09-03T03:34:49;23.87;44.58
65371;DHT22;58485;59.934;30.352;2022-09-03T03:35:40;23.88;44.61
65371;DHT22;58485;59.934;30.352;2022-09-03T03:36:34;23.88;44.61
65371;DHT22;58485;59.934;30.352;2022-09-03T03:37:26;23.87;44.64
65371;DHT22;58485;59.934;30.352;2022-09-03T03:38:18;23.87;44.64
65371;DHT22;58485;59.934;30.352;2022-09-03T03:39:10;23.87;44.63
65371;DHT22;58485;59.934;30.352;2022-09-03T03:40:01;23.86;44.64
65371;DHT22;58485;59.934;30.352;2022-09-03T03:40:54;23.86;44.64
65371;DHT22;58485;59.934;30.352;2022-09-03T03:41:45;23.86;44.67
65371;DHT22;58485;59.934;30.352;2022-09-03T03:42:38;23.86;44.70
65371;DHT22;58485;59.934;30.352;2022-09-03T03:43:29;23.85;44.70
65371;DHT22;58485;59.934;30.352;2022-09-03T03:44:21;23.84;44.70
65371;DHT22;58485;59.934;30.352;2022-09-03T03:45:13;23.84;44.70
65371;DHT22;58485;59.934;30.352;2022-09-03T03:46:05;23.85;44.69
65371;DHT22;58485;59.934;30.352;2022-09-03T03:46:58;23.85;44.68
65371;DHT22;58485;59.934;30.352;2022-09-03T03:47:50;23.85;44.71
65371;DHT22;58485;59.934;30.352;2022-09-03T03:48:42;23.84;44.74
65371;DHT22;58485;59.934;30.352;2022-09-03T03:49:34;23.83;44.69
65371;DHT22;58485;59.934;30.352;2022-09-03T03:50:25;23.84;44.70
65371;DHT22;58485;59.934;30.352;2022-09-03T03:51:18;23.84;44.62
65371;DHT22;58485;59.934;30.352;2022-09-03T03:52:09;23.85;44.60
65371;DHT22;58485;59.934;30.352;2022-09-03T03:53:00;23.84;44.62
65371;DHT22;58485;59.934;30.352;2022-09-03T03:53:54;23.85;44.59
65371;DHT22;58485;59.934;30.352;2022-09-03T03:54:46;23.84;44.67
65371;DHT22;58485;59.934;30.352;2022-09-03T03:55:39;23.84;44.63
65371;DHT22;58485;59.934;30.352;2022-09-03T03:56:32;23.84;44.63
65371;DHT22;58485;59.934;30.352;2022-09-03T03:57:24;23.83;44.69
65371;DHT22;58485;59.934;30.352;2022-09-03T03:58:16;23.84;44.72
65371;DHT22;58485;59.934;30.352;2022-09-03T03:59:08;23.84;44.74
65371;DHT22;58485;59.934;30.352;2022-09-03T04:00:00;23.83;44.74
65371;DHT22;58485;59.934;30.352;2022-09-03T04:00:52;23.83;44.74
65371;DHT22;58485;59.934;30.352;2022-09-03T04:01:43;23.83;44.76
65371;DHT22;58485;59.934;30.352;2022-09-03T04:02:37;23.84;44.75
65371;DHT22;58485;59.934;30.352;2022-09-03T04:03:28;23.83;44.80
65371;DHT22;58485;59.934;30.352;2022-09-03T04:04:20;23.82;44.80
65371;DHT22;58485;59.934;30.352;2022-09-03T04:05:12;23.82;44.83
65371;DHT22;58485;59.934;30.352;2022-09-03T04:06:06;23.82;44.83
65371;DHT22;58485;59.934;30.352;2022-09-03T04:06:58;23.82;44.83
65371;DHT22;58485;59.934;30.352;2022-09-03T04:07:50;23.81;44.81
65371;DHT22;58485;59.934;30.352;2022-09-03T04:08:43;23.81;44.79
65371;DHT22;58485;59.934;30.352;2022-09-03T04:09:36;23.82;44.80
65371;DHT22;58485;59.934;30.352;2022-09-03T04:10:27;23.81;44.77
65371;DHT22;58485;59.934;30.352;2022-09-03T04:11:21;23.80;44.71
65371;DHT22;58485;59.934;30.352;2022-09-03T04:12:13;23.82;44.76
65371;DHT22;58485;59.934;30.352;2022-09-03T04:13:05;23.81;44.77
65371;DHT22;58485;59.934;30.352;2022-09-03T04:13:56;23.81;44.77
65371;DHT22;58485;59.934;30.352;2022-09-03T04:14:48;23.81;44.74
65371;DHT22;58485;59.934;30.352;2022-09-03T04:15:39;23.81;44.77
65371;DHT22;58485;59.934;30.352;2022-09-03T04:16:32;23.82;44.80
65371;DHT22;58485;59.934;30.352;2022-09-03T04:17:23;23.82;44.85
65371;DHT22;58485;59.934;30.352;2022-09-03T04:18:17;23.81;44.82
65371;DHT22;58485;59.934;30.352;2022-09-03T04:19:08;23.82;44.84
65371;DHT22;58485;59.934;30.352;2022-09-03T04:20:01;23.81;44.87
65371;DHT22;58485;59.934;30.352;2022-09-03T04:20:52;23.81;44.91
65371;DHT22;58485;59.934;30.352;2022-09-03T04:21:44;23.81;44.87
65371;DHT22;58485;59.934;30.352;2022-09-03T04:22:36;23.80;44.89
65371;DHT22;58485;59.934;30.352;2022-09-03T04:23:28;23.80;44.91
65371;DHT22;58485;59.934;30.352;2022-09-03T04:24:20;23.80;44.87
65371;DHT22;58485;59.934;30.352;2022-09-03T04:25:13;23.80;44.90
65371;DHT22;58485;59.934;30.352;2022-09-03T04:26:05;23.80;44.92
65371;DHT22;58485;59.934;30.352;2022-09-03T04:26:57;23.80;44.92
65371;DHT22;58485;59.934;30.352;2022-09-03T04:27:50;23.80;44.92
65371;DHT22;58485;59.934;30.352;2022-09-03T04:28:42;23.79;44.92
65371;DHT22;58485;59.934;30.352;2022-09-03T04:29:34;23.80;44.88
65371;DHT22;58485;59.934;30.352;2022-09-03T04:30:25;23.79;44.89
65371;DHT22;58485;59.934;30.352;2022-09-03T04:31:19;23.79;44.86
65371;DHT22;58485;59.934;30.352;2022-09-03T04:32:11;23.79;44.87
65371;DHT22;58485;59.934;30.352;2022-09-03T04:33:25;23.77;44.72
65371;DHT22;58485;59.934;30.352;2022-09-03T04:34:17;23.76;44.85
65371;DHT22;58485;59.934;30.352;2022-09-03T04:35:08;23.77;44.84
65371;DHT22;58485;59.934;30.352;2022-09-03T04:36:03;23.79;44.83
65371;DHT22;58485;59.934;30.352;2022-09-03T04:36:55;23.77;44.88
65371;DHT22;58485;59.934;30.352;2022-09-03T04:37:48;23.77;44.91
65371;DHT22;58485;59.934;30.352;2022-09-03T04:38:41;23.76;44.94
65371;DHT22;58485;59.934;30.352;2022-09-03T04:39:34;23.76;44.94
65371;DHT22;58485;59.934;30.352;2022-09-03T04:40:25;23.75;44.96
65371;DHT22;58485;59.934;30.352;2022-09-03T04:41:20;23.77;44.93
65371;DHT22;58485;59.934;30.352;2022-09-03T04:42:11;23.76;44.93
65371;DHT22;58485;59.934;30.352;2022-09-03T04:43:03;23.76;44.95
65371;DHT22;58485;59.934;30.352;2022-09-03T04:43:57;23.76;44.94
65371;DHT22;58485;59.934;30.352;2022-09-03T04:44:49;23.76;44.99
65371;DHT22;58485;59.934;30.352;2022-09-03T04:45:40;23.76;44.96
65371;DHT22;58485;59.934;30.352;2022-09-03T04:46:33;23.77;44.96
65371;DHT22;58485;59.934;30.352;2022-09-03T04:47:24;23.75;44.96
65371;DHT22;58485;59.934;30.352;2022-09-03T04:48:17;23.76;44.98
65371;DHT22;58485;59.934;30.352;2022-09-03T04:49:10;23.75;44.93
65371;DHT22;58485;59.934;30.352;2022-09-03T04:50:02;23.75;44.99
65371;DHT22;58485;59.934;30.352;2022-09-03T04:50:54;23.76;44.97
65371;DHT22;58485;59.934;30.352;2022-09-03T04:51:55;23.76;44.94
65371;DHT22;58485;59.934;30.352;2022-09-03T04:52:47;23.75;44.90
65371;DHT22;58485;59.934;30.352;2022-09-03T04:53:42;23.76;44.77
65371;DHT22;58485;59.934;30.352;2022-09-03T04:54:35;23.76;44.93
65371;DHT22;58485;59.934;30.352;2022-09-03T04:55:27;23.75;44.95
65371;DHT22;58485;59.934;30.352;2022-09-03T04:56:25;23.76;44.93
65371;DHT22;58485;59.934;30.352;2022-09-03T04:57:18;23.75;44.96
65371;DHT22;58485;59.934;30.352;2022-09-03T04:58:09;23.74;44.99
65371;DHT22;58485;59.934;30.352;2022-09-03T04:59:03;23.74;44.99
65371;DHT22;58485;59.934;30.352;2022-09-03T04:59:55;23.74;45.01
65371;DHT22;58485;59.934;30.352;2022-09-03T05:00:47;23.74;45.02
65371;DHT22;58485;59.934;30.352;2022-09-03T05:01:39;23.75;44.99
65371;DHT22;58485;59.934;30.352;2022-09-03T05:02:31;23.74;45.05
65371;DHT22;58485;59.934;30.352;2022-09-03T05:03:23;23.74;45.07
65371;DHT22;58485;59.934;30.352;2022-09-03T05:04:16;23.73;45.00
65371;DHT22;58485;59.934;30.352;2022-09-03T05:05:08;23.74;45.04
65371;DHT22;58485;59.934;30.352;2022-09-03T05:06:00;23.73;45.09
65371;DHT22;58485;59.934;30.352;2022-09-03T05:06:52;23.74;45.06
65371;DHT22;58485;59.934;30.352;2022-09-03T05:07:44;23.74;45.06
65371;DHT22;58485;59.934;30.352;2022-09-03T05:08:36;23.74;45.08
65371;DHT22;58485;59.934;30.352;2022-09-03T05:09:28;23.72;45.05
65371;DHT22;58485;59.934;30.352;2022-09-03T05:10:19;23.73;45.07
65371;DHT22;58485;59.934;30.352;2022-09-03T05:11:13;23.72;45.06
65371;DHT22;58485;59.934;30.352;2022-09-03T05:12:04;23.74;45.03
65371;DHT22;58485;59.934;30.352;2022-09-03T05:12:58;23.72;45.00
65371;DHT22;58485;59.934;30.352;2022-09-03T05:13:51;23.72;45.03
65371;DHT22;58485;59.934;30.352;2022-09-03T05:14:44;23.72;45.02
65371;DHT22;58485;59.934;30.352;2022-09-03T05:15:36;23.73;45.05
65371;DHT22;58485;59.934;30.352;2022-09-03T05:16:28;23.73;45.07
65371;DHT22;58485;59.934;30.352;2022-09-03T05:17:20;23.74;45.10
65371;DHT22;58485;59.934;30.352;2022-09-03T05:18:12;23.73;45.10
65371;DHT22;58485;59.934;30.352;2022-09-03T05:19:04;23.73;45.05
65371;DHT22;58485;59.934;30.352;2022-09-03T05:19:59;23.73;44.99
65371;DHT22;58485;59.934;30.352;2022-09-03T05:20:57;23.72;44.83
65371;DHT22;58485;59.934;30.352;2022-09-03T05:21:50;23.72;45.04
65371;DHT22;58485;59.934;30.352;2022-09-03T05:22:41;23.72;45.06
65371;DHT22;58485;59.934;30.352;2022-09-03T05:23:35;23.72;45.03
65371;DHT22;58485;59.934;30.352;2022-09-03T05:24:27;23.73;45.06
65371;DHT22;58485;59.934;30.352;2022-09-03T05:25:19;23.72;45.08
65371;DHT22;58485;59.934;30.352;2022-09-03T05:26:13;23.73;45.09
65371;DHT22;58485;59.934;30.352;2022-09-03T05:27:05;23.71;45.09
65371;DHT22;58485;59.934;30.352;2022-09-03T05:27:57;23.71;45.10
65371;DHT22;58485;59.934;30.352;2022-09-03T05:28:52;23.71;45.01
65371;DHT22;58485;59.934;30.352;2022-09-03T05:29:44;23.72;45.04
65371;DHT22;58485;59.934;30.352;2022-09-03T05:30:37;23.72;45.06
65371;DHT22;58485;59.934;30.352;2022-09-03T05:31:29;23.72;45.04
65371;DHT22;58485;59.934;30.352;2022-09-03T05:32:22;23.71;45.05
65371;DHT22;58485;59.934;30.352;2022-09-03T05:33:14;23.71;45.03
65371;DHT22;58485;59.934;30.352;2022-09-03T05:34:07;23.70;45.06
65371;DHT22;58485;59.934;30.352;2022-09-03T05:35:01;23.70;45.04
65371;DHT22;58485;59.934;30.352;2022-09-03T05:35:53;23.71;45.07
65371;DHT22;58485;59.934;30.352;2022-09-03T05:36:45;23.71;45.07
65371;DHT22;58485;59.934;30.352;2022-09-03T05:37:39;23.70;45.06
65371;DHT22;58485;59.934;30.352;2022-09-03T05:38:31;23.71;45.08
65371;DHT22;58485;59.934;30.352;2022-09-03T05:39:23;23.69;45.07
65371;DHT22;58485;59.934;30.352;2022-09-03T05:40:15;23.69;45.08
65371;DHT22;58485;59.934;30.352;2022-09-03T05:41:09;23.69;45.06
65371;DHT22;58485;59.934;30.352;2022-09-03T05:42:01;23.69;45.11
65371;DHT22;58485;59.934;30.352;2022-09-03T05:42:55;23.69;45.12
65371;DHT22;58485;59.934;30.352;2022-09-03T05:43:49;23.68;45.11
65371;DHT22;58485;59.934;30.352;2022-09-03T05:44:44;23.68;45.12
65371;DHT22;58485;59.934;30.352;2022-09-03T05:45:35;23.68;45.09
65371;DHT22;58485;59.934;30.352;2022-09-03T05:46:30;23.68;45.05
65371;DHT22;58485;59.934;30.352;2022-09-03T05:47:23;23.68;45.08
65371;DHT22;58485;59.934;30.352;2022-09-03T05:48:15;23.68;45.07
65371;DHT22;58485;59.934;30.352;2022-09-03T05:49:07;23.69;45.06
65371;DHT22;58485;59.934;30.352;2022-09-03T05:49:58;23.68;45.06